createdAt,value
2023-05-06T00:03:02.854Z,14.9
2023-05-06T00:13:02.840Z,14.9
2023-05-06T00:23:02.752Z,15
2023-05-06T00:33:02.790Z,14.9
2023-05-06T00:43:02.785Z,14.7
2023-05-06T00:53:02.714Z,14.6
2023-05-06T01:03:02.825Z,14.4
2023-05-06T01:13:02.709Z,14.2
2023-05-06T01:23:02.662Z,14
2023-05-06T01:33:02.748Z,13.9
2023-05-06T01:43:02.613Z,13.9
2023-05-06T01:53:02.582Z,13.7
2023-05-06T02:03:02.620Z,13.5
2023-05-06T02:13:02.586Z,13.6
2023-05-06T02:23:02.609Z,13.5
2023-05-06T02:33:02.546Z,13.3
2023-05-06T02:43:02.548Z,13.3
2023-05-06T02:53:02.454Z,13.2
2023-05-06T03:03:02.515Z,13.2
2023-05-06T03:13:02.482Z,13.1
2023-05-06T03:23:02.407Z,13.1
2023-05-06T03:33:02.474Z,12.9
2023-05-06T03:43:02.378Z,12.9
2023-05-06T03:53:02.365Z,12.7
2023-05-06T04:03:02.521Z,12.5
2023-05-06T04:13:02.382Z,12.4
2023-05-06T04:23:02.325Z,12.1
2023-05-06T04:33:02.352Z,12.1
2023-05-06T04:43:02.286Z,12
2023-05-06T04:53:02.235Z,11.9
2023-05-06T05:03:02.420Z,11.9
2023-05-06T05:13:02.359Z,12
2023-05-06T05:23:02.210Z,12.3
2023-05-06T05:33:02.250Z,12.5
2023-05-06T05:43:02.201Z,12.8
2023-05-06T05:53:02.120Z,13.3
2023-05-06T06:03:02.293Z,13.7
2023-05-06T06:13:02.099Z,14
2023-05-06T06:23:02.087Z,14.4
2023-05-06T06:33:02.130Z,14.8
2023-05-06T06:43:02.058Z,15.1
2023-05-06T06:53:04.198Z,15.6
2023-05-06T07:03:02.033Z,15.8
2023-05-06T07:13:02.042Z,16.2
2023-05-06T07:23:01.976Z,16.6
2023-05-06T07:33:01.962Z,17
2023-05-06T07:43:01.923Z,17.4
2023-05-06T07:53:01.923Z,17.9
2023-05-06T08:03:01.946Z,18.3
2023-05-06T08:13:01.963Z,18.7
2023-05-06T08:23:01.871Z,19.2
2023-05-06T08:33:01.939Z,19.6
2023-05-06T08:43:01.785Z,20
2023-05-06T08:53:01.786Z,20.4
2023-05-06T09:03:01.876Z,20.8
2023-05-06T09:13:01.768Z,22
2023-05-06T09:23:01.712Z,24.1
2023-05-06T09:33:01.758Z,25.8
2023-05-06T09:43:01.681Z,27.5
2023-05-06T09:53:01.668Z,28.6
2023-05-06T10:03:01.775Z,29.7
2023-05-06T10:13:01.708Z,31.1
2023-05-06T10:23:01.618Z,31.2
2023-05-06T10:33:01.573Z,32.1
2023-05-06T10:43:01.554Z,32.6
2023-05-06T10:53:01.531Z,32.7
2023-05-06T11:03:01.725Z,33.1
2023-05-06T11:13:01.525Z,33.4
2023-05-06T11:23:01.421Z,34.5
2023-05-06T11:33:03.217Z,35.6
2023-05-06T11:43:01.426Z,35.6
2023-05-06T11:53:01.419Z,35
2023-05-06T12:03:01.438Z,34.8
2023-05-06T12:13:01.401Z,36.1
2023-05-06T12:23:01.364Z,37.3
2023-05-06T12:33:01.419Z,37.7
2023-05-06T12:43:01.296Z,38.3
2023-05-06T12:53:01.278Z,39
2023-05-06T13:03:01.428Z,39.5
2023-05-06T13:13:01.228Z,39.9
2023-05-06T13:23:01.235Z,39.5
2023-05-06T13:33:01.264Z,40
2023-05-06T13:43:01.197Z,39.9
2023-05-06T13:53:01.149Z,39.7
2023-05-06T14:03:01.168Z,39.1
2023-05-06T14:13:01.170Z,36.9
2023-05-06T14:23:01.105Z,36.2
2023-05-06T14:33:01.086Z,34.4
2023-05-06T14:43:01.058Z,35.2
2023-05-06T14:53:02.941Z,36.2
2023-05-06T15:03:01.064Z,37
2023-05-06T15:13:01.091Z,36.7
2023-05-06T15:23:00.967Z,37.5
2023-05-06T15:33:00.963Z,37.7
2023-05-06T15:43:00.953Z,36.2
2023-05-06T15:53:00.936Z,36.1
2023-05-06T16:03:01.008Z,35.3
2023-05-06T16:13:00.886Z,35
2023-05-06T16:23:00.831Z,35.1
2023-05-06T16:33:00.877Z,35.1
2023-05-06T16:43:00.800Z,34.4
2023-05-06T16:53:00.771Z,33.2
2023-05-06T17:03:00.868Z,32
2023-05-06T17:13:00.778Z,31.4
2023-05-06T17:23:00.699Z,30.7
2023-05-06T17:33:00.749Z,30.6
2023-05-06T17:43:00.793Z,30.3
2023-05-06T17:53:00.646Z,29.8
2023-05-06T18:03:00.780Z,29.1
2023-05-06T18:13:00.655Z,28
2023-05-06T18:23:00.585Z,27.4
2023-05-06T18:33:00.615Z,26.8
2023-05-06T18:43:00.538Z,26.1
2023-05-06T18:53:00.492Z,25.7
2023-05-06T19:03:00.516Z,25.3
2023-05-06T19:13:00.511Z,25
2023-05-06T19:23:00.438Z,24.9
2023-05-06T19:33:00.528Z,24.5
2023-05-06T19:43:00.399Z,24.4
2023-05-06T19:53:00.405Z,24.2
2023-05-06T20:03:00.552Z,23.7
2023-05-06T20:13:00.351Z,23.2
2023-05-06T20:23:00.307Z,22.6
2023-05-06T20:33:00.357Z,22.1
2023-05-06T20:43:00.268Z,21.7
2023-05-06T20:53:00.254Z,21.4
2023-05-06T21:03:00.377Z,21
2023-05-06T21:13:00.239Z,20.8
2023-05-06T21:23:00.182Z,20.6
2023-05-06T21:33:00.233Z,20.5
2023-05-06T21:43:00.198Z,20.3
2023-05-06T21:53:00.129Z,20
2023-05-06T22:03:00.228Z,20
2023-05-06T22:13:00.147Z,19.8
2023-05-06T22:23:00.066Z,19.7
2023-05-06T22:33:00.045Z,19.5
2023-05-06T22:43:00.032Z,19.4
2023-05-06T22:53:10.374Z,19.1
2023-05-06T23:03:00.030Z,18.6
2023-05-06T23:13:00.054Z,18.3
2023-05-06T23:22:59.931Z,18.1
2023-05-06T23:32:59.930Z,17.9
2023-05-06T23:42:59.890Z,17.7
2023-05-06T23:52:59.860Z,17.6
